createdAt,value
2018-10-16T00:01:49.624Z,15.40
2018-10-16T00:04:25.291Z,15.30
2018-10-16T00:07:00.837Z,15.30
2018-10-16T00:09:36.408Z,15.20
2018-10-16T00:12:12.044Z,15.20
2018-10-16T00:14:47.713Z,15.20
2018-10-16T00:17:23.436Z,15.10
2018-10-16T00:19:59.057Z,15.10
2018-10-16T00:22:34.710Z,15.00
2018-10-16T00:25:14.495Z,15.00
2018-10-16T00:27:50.137Z,15.00
2018-10-16T00:30:25.768Z,15.00
2018-10-16T00:33:01.361Z,15.00
2018-10-16T00:35:36.997Z,14.90
2018-10-16T00:38:12.529Z,14.90
2018-10-16T00:40:48.309Z,14.90
2018-10-16T00:43:23.964Z,14.90
2018-10-16T00:45:59.485Z,14.90
2018-10-16T00:48:35.110Z,14.90
2018-10-16T00:51:10.832Z,14.80
2018-10-16T00:53:46.394Z,14.80
2018-10-16T00:56:22.064Z,14.80
2018-10-16T00:58:57.716Z,14.80
2018-10-16T01:01:34.252Z,14.80
2018-10-16T01:04:09.977Z,14.70
2018-10-16T01:06:45.737Z,14.70
2018-10-16T01:09:21.334Z,14.70
2018-10-16T01:11:56.929Z,14.60
2018-10-16T01:14:32.521Z,14.60
2018-10-16T01:17:08.281Z,14.60
2018-10-16T01:19:43.883Z,14.60
2018-10-16T01:22:19.490Z,14.50
2018-10-16T01:24:55.135Z,14.50
2018-10-16T01:27:30.788Z,14.50
2018-10-16T01:30:06.632Z,14.50
2018-10-16T01:32:42.354Z,14.40
2018-10-16T01:35:17.929Z,14.40
2018-10-16T01:37:53.584Z,14.40
2018-10-16T01:40:29.218Z,14.30
2018-10-16T01:43:04.856Z,14.30
2018-10-16T01:45:40.496Z,14.30
2018-10-16T01:48:16.012Z,14.30
2018-10-16T01:50:51.620Z,14.30
2018-10-16T01:53:27.197Z,14.20
2018-10-16T01:56:02.793Z,14.20
2018-10-16T01:58:38.593Z,14.10
2018-10-16T02:01:14.209Z,14.00
2018-10-16T02:03:49.801Z,14.00
2018-10-16T02:06:25.433Z,13.90
2018-10-16T02:09:01.034Z,13.90
2018-10-16T02:11:36.664Z,13.80
2018-10-16T02:14:12.294Z,13.80
2018-10-16T02:16:47.897Z,13.80
2018-10-16T02:19:23.497Z,13.80
2018-10-16T02:21:59.093Z,13.80
2018-10-16T02:24:34.761Z,13.80
2018-10-16T02:27:10.368Z,13.80
2018-10-16T02:29:46.004Z,13.80
2018-10-16T02:32:21.569Z,13.80
2018-10-16T02:34:57.149Z,13.80
2018-10-16T02:37:32.730Z,13.80
2018-10-16T02:40:09.512Z,13.80
2018-10-16T02:42:45.061Z,13.80
2018-10-16T02:45:20.753Z,13.70
2018-10-16T02:47:56.525Z,13.70
2018-10-16T02:50:32.160Z,13.70
2018-10-16T02:53:07.788Z,13.70
2018-10-16T02:55:43.472Z,13.70
2018-10-16T02:58:19.114Z,13.70
2018-10-16T03:00:54.745Z,13.70
2018-10-16T03:03:39.174Z,13.70
2018-10-16T03:06:14.925Z,13.70
2018-10-16T03:08:50.628Z,13.60
2018-10-16T03:11:26.253Z,13.60
2018-10-16T03:14:01.821Z,13.60
2018-10-16T03:16:37.788Z,13.50
2018-10-16T03:19:13.519Z,13.50
2018-10-16T03:21:49.213Z,13.50
2018-10-16T03:24:24.794Z,13.50
2018-10-16T03:27:00.347Z,13.40
2018-10-16T03:29:36.021Z,13.40
2018-10-16T03:32:11.590Z,13.40
2018-10-16T03:34:47.208Z,13.40
2018-10-16T03:37:23.374Z,13.40
2018-10-16T03:39:59.385Z,13.40
2018-10-16T03:42:35.104Z,13.30
2018-10-16T03:45:12.207Z,13.30
2018-10-16T03:47:47.767Z,13.30
2018-10-16T03:50:23.621Z,13.30
2018-10-16T03:52:59.229Z,13.30
2018-10-16T03:55:34.817Z,13.30
2018-10-16T03:58:10.642Z,13.30
2018-10-16T04:00:46.126Z,13.20
2018-10-16T04:03:21.716Z,13.20
2018-10-16T04:05:57.374Z,13.20
2018-10-16T04:08:32.975Z,13.20
2018-10-16T04:11:08.664Z,13.20
2018-10-16T04:13:44.209Z,13.20
2018-10-16T04:16:20.296Z,13.20
2018-10-16T04:18:55.925Z,13.10
2018-10-16T04:21:35.664Z,13.10
2018-10-16T04:24:11.481Z,13.10
2018-10-16T04:26:47.133Z,13.10
2018-10-16T04:29:22.757Z,13.10
2018-10-16T04:31:58.417Z,13.00
2018-10-16T04:34:33.969Z,13.00
2018-10-16T04:37:09.586Z,13.00
2018-10-16T04:39:45.142Z,13.00
2018-10-16T04:42:20.689Z,12.90
2018-10-16T04:44:56.304Z,12.90
2018-10-16T04:47:32.087Z,12.80
2018-10-16T04:50:08.116Z,12.80
2018-10-16T04:52:43.781Z,12.70
2018-10-16T04:55:19.468Z,12.70
2018-10-16T04:57:55.232Z,12.70
2018-10-16T05:00:30.837Z,12.70
2018-10-16T05:03:07.041Z,12.70
2018-10-16T05:05:42.688Z,12.70
2018-10-16T05:08:18.341Z,12.70
2018-10-16T05:10:53.925Z,12.70
2018-10-16T05:13:29.548Z,12.70
2018-10-16T05:16:05.203Z,12.70
2018-10-16T05:18:40.828Z,12.70
2018-10-16T05:21:16.479Z,12.60
2018-10-16T05:23:52.131Z,12.60
2018-10-16T05:26:27.751Z,12.60
2018-10-16T05:29:03.535Z,12.60
2018-10-16T05:31:39.242Z,12.60
2018-10-16T05:34:15.069Z,12.50
2018-10-16T05:36:50.684Z,12.50
2018-10-16T05:39:26.261Z,12.40
2018-10-16T05:42:01.962Z,12.40
2018-10-16T05:44:37.577Z,12.30
2018-10-16T05:47:13.217Z,12.30
2018-10-16T05:49:48.829Z,12.20
2018-10-16T05:52:24.353Z,12.20
2018-10-16T05:55:00.019Z,12.20
2018-10-16T05:57:36.016Z,12.20
2018-10-16T06:00:28.492Z,12.10
2018-10-16T06:03:04.069Z,12.10
2018-10-16T06:05:39.637Z,12.10
2018-10-16T06:08:15.493Z,12.10
2018-10-16T06:10:51.200Z,12.10
2018-10-16T06:13:27.160Z,12.10
2018-10-16T06:16:02.867Z,12.10
2018-10-16T06:18:38.681Z,12.10
2018-10-16T06:21:14.377Z,12.20
2018-10-16T06:23:50.040Z,12.20
2018-10-16T06:26:25.665Z,12.20
2018-10-16T06:29:01.555Z,12.20
2018-10-16T06:31:37.151Z,12.20
2018-10-16T06:34:12.758Z,12.30
2018-10-16T06:36:48.417Z,12.30
2018-10-16T06:39:24.109Z,12.30
2018-10-16T06:41:59.638Z,12.40
2018-10-16T06:44:35.312Z,12.50
2018-10-16T06:47:10.970Z,12.50
2018-10-16T06:49:46.933Z,12.60
2018-10-16T06:52:22.550Z,12.70
2018-10-16T06:54:58.209Z,12.80
2018-10-16T06:57:34.007Z,12.90
2018-10-16T07:00:09.627Z,13.10
2018-10-16T07:02:45.414Z,13.20
2018-10-16T07:05:21.106Z,13.30
2018-10-16T07:07:56.657Z,13.40
2018-10-16T07:10:32.293Z,13.50
2018-10-16T07:13:08.157Z,13.60
2018-10-16T07:15:43.773Z,13.70
2018-10-16T07:18:19.441Z,13.70
2018-10-16T07:20:55.028Z,13.80
2018-10-16T07:23:30.749Z,13.90
2018-10-16T07:26:06.858Z,13.90
2018-10-16T07:28:42.478Z,14.00
2018-10-16T07:32:21.328Z,14.10
2018-10-16T07:34:56.743Z,14.20
2018-10-16T07:37:32.337Z,14.30
2018-10-16T07:40:09.254Z,14.40
2018-10-16T07:42:44.848Z,14.50
2018-10-16T07:45:20.525Z,14.60
2018-10-16T07:47:56.138Z,14.80
2018-10-16T07:50:31.788Z,14.90
2018-10-16T07:53:07.505Z,15.00
2018-10-16T07:55:42.988Z,15.10
2018-10-16T07:58:18.686Z,15.30
2018-10-16T08:00:54.297Z,15.40
2018-10-16T08:03:29.889Z,15.50
2018-10-16T08:06:06.213Z,15.70
2018-10-16T08:08:42.017Z,15.80
2018-10-16T08:11:17.709Z,15.90
2018-10-16T08:13:53.382Z,16.10
2018-10-16T08:16:28.970Z,16.20
2018-10-16T08:19:04.506Z,16.40
2018-10-16T08:21:40.083Z,16.50
2018-10-16T08:24:15.857Z,16.70
2018-10-16T08:26:52.831Z,16.90
2018-10-16T08:29:30.395Z,17.00
2018-10-16T08:32:09.862Z,17.20
2018-10-16T08:34:49.196Z,17.30
2018-10-16T08:39:50.667Z,17.50
2018-10-16T08:43:43.576Z,17.70
2018-10-16T08:46:36.112Z,17.90
2018-10-16T08:49:28.761Z,18.10
2018-10-16T08:52:04.257Z,18.30
2018-10-16T08:54:39.882Z,18.50
2018-10-16T08:57:15.347Z,18.60
2018-10-16T08:59:52.161Z,18.80
2018-10-16T09:02:27.715Z,19.00
2018-10-16T09:05:03.368Z,19.10
2018-10-16T09:07:39.035Z,19.30
2018-10-16T09:10:14.876Z,19.50
2018-10-16T09:12:50.564Z,19.60
2018-10-16T09:15:26.065Z,19.80
2018-10-16T09:18:01.736Z,19.90
2018-10-16T09:20:37.352Z,20.10
2018-10-16T09:23:12.982Z,20.20
2018-10-16T09:25:48.579Z,20.40
2018-10-16T09:28:24.239Z,20.50
2018-10-16T09:30:59.827Z,20.70
2018-10-16T09:33:35.701Z,20.80
2018-10-16T09:36:11.296Z,21.00
2018-10-16T09:38:46.964Z,21.20
2018-10-16T09:41:22.576Z,21.30
2018-10-16T09:43:58.112Z,21.50
2018-10-16T09:46:33.670Z,21.70
2018-10-16T09:49:09.316Z,21.80
2018-10-16T09:51:44.881Z,22.00
2018-10-16T09:54:20.525Z,22.20
2018-10-16T09:56:56.097Z,22.30
2018-10-16T09:59:31.705Z,22.50
2018-10-16T10:02:07.647Z,22.60
2018-10-16T10:04:43.269Z,22.80
2018-10-16T10:07:18.816Z,22.90
2018-10-16T10:09:54.690Z,23.10
2018-10-16T10:12:30.273Z,23.20
2018-10-16T10:15:06.273Z,23.30
2018-10-16T10:17:42.053Z,23.50
2018-10-16T10:20:17.625Z,23.60
2018-10-16T10:22:53.212Z,23.70
2018-10-16T10:25:28.977Z,23.90
2018-10-16T10:28:04.734Z,24.00
2018-10-16T10:30:40.523Z,24.10
2018-10-16T10:33:16.180Z,24.20
2018-10-16T10:35:51.777Z,24.30
2018-10-16T10:38:27.366Z,24.40
2018-10-16T10:41:03.169Z,24.50
2018-10-16T10:43:38.925Z,24.60
2018-10-16T10:46:14.706Z,24.70
2018-10-16T10:48:51.952Z,24.80
2018-10-16T10:51:27.944Z,24.90
2018-10-16T10:54:03.345Z,25.00
2018-10-16T10:56:38.996Z,25.00
2018-10-16T10:59:14.723Z,25.10
2018-10-16T11:01:50.433Z,25.10
2018-10-16T11:04:26.019Z,25.20
2018-10-16T11:07:01.621Z,25.30
2018-10-16T11:09:37.289Z,25.30
2018-10-16T11:12:13.029Z,25.40
2018-10-16T11:14:48.725Z,25.40
2018-10-16T11:17:24.497Z,25.50
2018-10-16T11:20:00.265Z,25.60
2018-10-16T11:22:35.873Z,25.60
2018-10-16T11:25:12.098Z,25.70
2018-10-16T11:27:47.776Z,25.80
2018-10-16T11:30:23.517Z,25.80
2018-10-16T11:33:00.406Z,25.90
2018-10-16T11:35:36.191Z,25.90
2018-10-16T11:38:11.836Z,26.00
2018-10-16T11:40:47.545Z,26.10
2018-10-16T11:43:23.137Z,26.20
2018-10-16T11:45:58.701Z,26.30
2018-10-16T11:48:34.298Z,26.50
2018-10-16T11:51:09.958Z,26.70
2018-10-16T11:53:45.603Z,26.80
2018-10-16T11:56:21.179Z,27.00
2018-10-16T11:58:57.394Z,27.20
2018-10-16T12:01:33.006Z,27.40
2018-10-16T12:04:09.225Z,27.50
2018-10-16T12:06:44.820Z,27.60
2018-10-16T12:09:20.432Z,27.60
2018-10-16T12:11:56.033Z,27.60
2018-10-16T12:14:31.701Z,27.60
2018-10-16T12:17:12.553Z,27.50
2018-10-16T12:19:51.660Z,27.50
2018-10-16T12:22:27.401Z,27.40
2018-10-16T12:25:03.135Z,27.30
2018-10-16T12:27:39.000Z,27.20
2018-10-16T12:30:14.758Z,27.20
2018-10-16T12:32:50.528Z,27.10
2018-10-16T12:35:26.173Z,27.10
2018-10-16T12:38:01.716Z,27.00
2018-10-16T12:40:37.317Z,26.90
2018-10-16T12:43:12.983Z,26.90
2018-10-16T12:45:48.784Z,26.80
2018-10-16T12:48:24.422Z,26.70
2018-10-16T12:51:00.097Z,26.70
2018-10-16T12:53:35.827Z,26.60
2018-10-16T12:56:11.552Z,26.60
2018-10-16T12:58:47.270Z,26.50
2018-10-16T13:01:22.889Z,26.40
2018-10-16T13:03:58.490Z,26.40
2018-10-16T13:06:34.083Z,26.40
2018-10-16T13:09:10.803Z,26.30
2018-10-16T13:11:46.604Z,26.30
2018-10-16T13:14:22.207Z,26.20
2018-10-16T13:16:57.856Z,26.20
2018-10-16T13:19:33.693Z,26.10
2018-10-16T13:22:09.362Z,26.10
2018-10-16T13:24:45.185Z,26.10
2018-10-16T13:27:20.881Z,26.00
2018-10-16T13:29:56.493Z,26.00
2018-10-16T13:32:32.371Z,26.00
2018-10-16T13:35:11.151Z,26.00
2018-10-16T13:37:47.313Z,26.00
2018-10-16T13:40:22.934Z,25.90
2018-10-16T13:42:58.530Z,25.90
2018-10-16T13:45:34.389Z,25.90
2018-10-16T13:48:09.955Z,25.90
2018-10-16T13:50:45.532Z,25.90
2018-10-16T13:53:21.127Z,25.80
2018-10-16T13:55:56.996Z,25.80
2018-10-16T13:58:32.759Z,25.80
2018-10-16T14:01:08.417Z,25.80
2018-10-16T14:03:44.049Z,25.80
2018-10-16T14:06:19.772Z,25.70
2018-10-16T14:08:55.240Z,25.70
2018-10-16T14:11:30.821Z,25.70
2018-10-16T14:14:06.490Z,25.70
2018-10-16T14:16:42.321Z,25.60
2018-10-16T14:19:18.149Z,25.60
2018-10-16T14:21:53.780Z,25.60
2018-10-16T14:24:29.587Z,25.60
2018-10-16T14:27:05.681Z,25.60
2018-10-16T14:29:41.313Z,25.60
2018-10-16T14:32:17.084Z,25.50
2018-10-16T14:34:52.918Z,25.50
2018-10-16T14:37:28.524Z,25.50
2018-10-16T14:40:04.114Z,25.40
2018-10-16T14:42:40.132Z,25.40
2018-10-16T14:45:15.796Z,25.40
2018-10-16T14:47:51.476Z,25.40
2018-10-16T14:50:27.331Z,25.40
2018-10-16T14:53:03.176Z,25.30
2018-10-16T14:55:38.749Z,25.30
2018-10-16T14:58:14.450Z,25.30
2018-10-16T15:00:50.280Z,25.30
2018-10-16T15:03:25.945Z,25.20
2018-10-16T15:06:01.494Z,25.20
2018-10-16T15:08:37.129Z,25.10
2018-10-16T15:11:12.709Z,25.10
2018-10-16T15:13:48.358Z,25.10
2018-10-16T15:16:24.019Z,25.10
2018-10-16T15:18:59.879Z,25.10
2018-10-16T15:21:35.467Z,25.00
2018-10-16T15:24:11.175Z,25.00
2018-10-16T15:26:47.047Z,25.00
2018-10-16T15:29:22.886Z,24.90
2018-10-16T15:31:58.389Z,24.90
2018-10-16T15:34:34.167Z,24.80
2018-10-16T15:37:09.764Z,24.80
2018-10-16T15:39:45.450Z,24.80
2018-10-16T15:42:21.065Z,24.70
2018-10-16T15:44:56.625Z,24.70
2018-10-16T15:47:32.229Z,24.70
2018-10-16T15:50:10.153Z,24.70
2018-10-16T15:52:45.918Z,24.60
2018-10-16T15:55:21.568Z,24.50
2018-10-16T15:57:57.178Z,24.50
2018-10-16T16:00:33.016Z,24.40
2018-10-16T16:03:08.789Z,24.40
2018-10-16T16:05:44.399Z,24.40
2018-10-16T16:08:20.048Z,24.30
2018-10-16T16:10:55.620Z,24.20
2018-10-16T16:13:31.205Z,24.20
2018-10-16T16:16:06.871Z,24.10
2018-10-16T16:18:42.643Z,24.00
2018-10-16T16:21:18.225Z,23.90
2018-10-16T16:23:54.566Z,23.80
2018-10-16T16:26:30.604Z,23.70
2018-10-16T16:29:06.284Z,23.60
2018-10-16T16:31:41.861Z,23.60
2018-10-16T16:34:17.456Z,23.50
2018-10-16T16:36:53.094Z,23.40
2018-10-16T16:39:28.875Z,23.30
2018-10-16T16:42:04.847Z,23.20
2018-10-16T16:44:40.605Z,23.20
2018-10-16T16:47:16.240Z,23.10
2018-10-16T16:49:51.857Z,23.00
2018-10-16T16:52:27.673Z,22.90
2018-10-16T16:55:03.253Z,22.90
2018-10-16T16:57:38.890Z,22.80
2018-10-16T17:00:15.191Z,22.70
2018-10-16T17:02:50.804Z,22.70
2018-10-16T17:05:26.412Z,22.60
2018-10-16T17:08:02.104Z,22.60
2018-10-16T17:10:37.784Z,22.50
2018-10-16T17:13:13.441Z,22.40
2018-10-16T17:15:49.018Z,22.40
2018-10-16T17:18:24.640Z,22.30
2018-10-16T17:21:00.405Z,22.30
2018-10-16T17:23:35.980Z,22.20
2018-10-16T17:26:11.871Z,22.10
2018-10-16T17:28:47.456Z,22.10
2018-10-16T17:31:26.679Z,22.00
2018-10-16T17:34:02.618Z,22.00
2018-10-16T17:36:39.789Z,21.90
2018-10-16T17:39:17.534Z,21.90
2018-10-16T17:41:54.601Z,21.80
2018-10-16T17:44:30.623Z,21.70
2018-10-16T17:47:07.704Z,21.60
2018-10-16T17:49:44.973Z,21.60
2018-10-16T17:52:20.986Z,21.60
2018-10-16T17:54:57.119Z,21.50
2018-10-16T17:57:38.856Z,21.50
2018-10-16T18:00:18.597Z,21.40
2018-10-16T18:02:54.744Z,21.40
2018-10-16T18:05:31.154Z,21.30
2018-10-16T18:08:07.658Z,21.30
2018-10-16T18:10:43.813Z,21.30
2018-10-16T18:13:20.171Z,21.20
2018-10-16T18:15:56.447Z,21.10
2018-10-16T18:18:34.543Z,21.10
2018-10-16T18:21:10.981Z,21.00
2018-10-16T18:23:47.463Z,21.00
2018-10-16T18:26:23.866Z,21.00
2018-10-16T18:29:00.159Z,20.90
2018-10-16T18:31:36.567Z,20.90
2018-10-16T18:34:12.829Z,20.80
2018-10-16T18:36:49.085Z,20.80
2018-10-16T18:39:20.287Z,20.70
2018-10-16T18:41:51.751Z,20.70
2018-10-16T18:44:22.715Z,20.60
2018-10-16T18:46:54.118Z,20.60
2018-10-16T18:49:25.472Z,20.50
2018-10-16T18:51:56.950Z,20.50
2018-10-16T18:54:28.303Z,20.40
2018-10-16T18:56:59.566Z,20.40
2018-10-16T18:59:30.812Z,20.40
2018-10-16T19:02:01.977Z,20.40
2018-10-16T19:04:32.817Z,20.30
2018-10-16T19:07:03.460Z,20.30
2018-10-16T19:09:33.829Z,20.30
2018-10-16T19:12:10.610Z,20.20
2018-10-16T19:14:41.161Z,20.20
2018-10-16T19:17:11.525Z,20.10
2018-10-16T19:19:41.846Z,20.10
2018-10-16T19:22:12.412Z,20.00
2018-10-16T19:24:42.737Z,20.00
2018-10-16T19:27:13.432Z,19.90
2018-10-16T19:29:43.840Z,19.90
2018-10-16T19:32:14.212Z,19.90
2018-10-16T19:34:44.554Z,19.80
2018-10-16T19:37:14.893Z,19.80
2018-10-16T19:39:45.197Z,19.80
2018-10-16T19:42:15.525Z,19.70
2018-10-16T19:44:46.101Z,19.70
2018-10-16T19:47:16.920Z,19.60
2018-10-16T19:49:47.477Z,19.60
2018-10-16T19:52:17.812Z,19.50
2018-10-16T19:54:48.396Z,19.50
2018-10-16T19:57:18.969Z,19.40
2018-10-16T19:59:49.799Z,19.40
2018-10-16T20:02:20.543Z,19.40
2018-10-16T20:04:50.874Z,19.30
2018-10-16T20:07:21.544Z,19.30
2018-10-16T20:09:52.039Z,19.30
2018-10-16T20:12:22.565Z,19.20
2018-10-16T20:14:52.915Z,19.20
2018-10-16T20:17:23.257Z,19.10
2018-10-16T20:19:53.872Z,19.10
2018-10-16T20:22:24.458Z,19.00
2018-10-16T20:24:54.837Z,19.00
2018-10-16T20:27:25.314Z,18.90
2018-10-16T20:29:55.637Z,18.90
2018-10-16T20:32:26.241Z,18.90
2018-10-16T20:34:56.806Z,18.90
2018-10-16T20:37:27.381Z,18.80
2018-10-16T20:39:57.689Z,18.80
2018-10-16T20:42:28.265Z,18.70
2018-10-16T20:44:58.829Z,18.70
2018-10-16T20:47:29.207Z,18.70
2018-10-16T20:49:59.996Z,18.60
2018-10-16T20:52:30.589Z,18.60
2018-10-16T20:55:00.967Z,18.50
2018-10-16T20:57:33.601Z,18.60
2018-10-16T21:00:04.518Z,18.50
2018-10-16T21:02:35.177Z,18.50
2018-10-16T21:05:06.924Z,18.50
2018-10-16T21:07:37.491Z,18.40
2018-10-16T21:10:08.402Z,18.40
2018-10-16T21:12:38.976Z,18.30
2018-10-16T21:15:10.233Z,18.30
2018-10-16T21:17:40.588Z,18.30
2018-10-16T21:20:11.208Z,18.20
2018-10-16T21:22:41.792Z,18.20
2018-10-16T21:25:12.208Z,18.20
2018-10-16T21:27:42.654Z,18.10
2018-10-16T21:30:13.200Z,18.10
2018-10-16T21:32:43.548Z,18.00
2018-10-16T21:35:13.946Z,18.00
2018-10-16T21:37:44.421Z,17.90
2018-10-16T21:40:14.739Z,17.90
2018-10-16T21:42:45.077Z,17.80
2018-10-16T21:45:16.449Z,17.80
2018-10-16T21:47:46.993Z,17.80
2018-10-16T21:50:17.300Z,17.80
2018-10-16T21:52:47.640Z,17.70
2018-10-16T21:55:17.961Z,17.70
2018-10-16T21:57:48.544Z,17.70
2018-10-16T22:00:25.043Z,17.60
2018-10-16T22:02:57.885Z,17.60
2018-10-16T22:05:28.288Z,17.50
2018-10-16T22:07:58.777Z,17.40
2018-10-16T22:10:29.340Z,17.50
2018-10-16T22:13:00.056Z,17.40
2018-10-16T22:15:30.975Z,17.30
2018-10-16T22:18:01.681Z,17.30
2018-10-16T22:20:32.577Z,17.30
2018-10-16T22:23:03.376Z,17.30
2018-10-16T22:25:33.892Z,17.30
2018-10-16T22:28:04.377Z,17.20
2018-10-16T22:30:34.764Z,17.20
2018-10-16T22:33:05.696Z,17.20
2018-10-16T22:35:36.299Z,17.20
2018-10-16T22:38:08.665Z,17.10
2018-10-16T22:40:38.984Z,17.10
2018-10-16T22:43:09.689Z,17.10
2018-10-16T22:45:40.300Z,17.10
2018-10-16T22:48:10.731Z,17.10
2018-10-16T22:50:41.321Z,17.10
2018-10-16T22:53:12.421Z,17.10
2018-10-16T22:55:43.652Z,17.00
2018-10-16T22:58:14.473Z,17.00
2018-10-16T23:00:44.865Z,17.00
2018-10-16T23:03:15.720Z,17.00
2018-10-16T23:05:46.413Z,16.90
2018-10-16T23:08:17.304Z,16.90
2018-10-16T23:10:47.801Z,16.90
2018-10-16T23:13:18.467Z,16.80
2018-10-16T23:15:49.249Z,16.80
2018-10-16T23:18:19.936Z,16.80
2018-10-16T23:20:50.544Z,16.70
2018-10-16T23:23:21.283Z,16.70
2018-10-16T23:25:51.997Z,16.70
2018-10-16T23:28:22.389Z,16.60
2018-10-16T23:30:53.039Z,16.60
2018-10-16T23:33:23.621Z,16.60
2018-10-16T23:35:54.517Z,16.50
2018-10-16T23:38:25.089Z,16.50
2018-10-16T23:40:55.435Z,16.50
2018-10-16T23:43:26.481Z,16.50
2018-10-16T23:45:57.216Z,16.40
2018-10-16T23:48:27.566Z,16.40
2018-10-16T23:50:57.865Z,16.40
2018-10-16T23:53:28.439Z,16.40
2018-10-16T23:55:58.766Z,16.40
2018-10-16T23:58:29.098Z,16.30
